»·PEaware :: N245AF KSBD-KSNA

N245AF :: KSBD-KSNA

FLIGHT INFORMATION

Flight Status: Arrived
Operator: Privately registered:
United States
More flights under this callsign
Pilot: Scott G. (88)
Aircraft: BEECH AIRCRAFT BARON
(BE58)
More flights by this aircraft type
Origin: KSBD San Bernardino Intl
United States
Destination: KSNA John Wayne-Orange Co
United States
More flights between these airports :: More routes between these airports
Route: DCT
File this flight plan on PilotEdge
Remarks:
Altitude:
(Current/Filed)
4,500ft
Speed:
(Current/Filed)
160kts
Departed: 24-Dec-17 01:42 PM
Arrived: 24-Dec-17 02:11 PM
Distance/Time
Traveled:
41nm/0:29
Distance/Time
To Go:
Arrived

Flight Plot

Page will automatically refresh every two minutes.

Flight plan parsing failed; only flown route is shown


Map Options




Map Legend


Flown Route
Filed Route
Departure Airport
Arrival Airport
Navaid (VOR, NDB)
Fix

Horizontal Profiles

Position Reports

Time Latitude Longitude Heading Altitude Ground
Speed
24-Dec-17 13:01 34.101429 -117.224894 193 1158ft 0kts
24-Dec-17 13:02 34.101429 -117.224894 193 1158ft 0kts
24-Dec-17 13:03 34.101429 -117.224894 193 1158ft 0kts
24-Dec-17 13:04 34.101429 -117.224894 193 1158ft 0kts
24-Dec-17 13:05 34.101429 -117.224894 193 1158ft 0kts
24-Dec-17 13:06 34.101429 -117.224894 193 1158ft 0kts
24-Dec-17 13:07 34.101392 -117.224905 193 1158ft 1kts
24-Dec-17 13:08 34.100480 -117.226622 249 1158ft 10kts
24-Dec-17 13:09 34.100382 -117.227287 202 1158ft 0kts
24-Dec-17 13:10 34.100382 -117.227287 202 1158ft 0kts
24-Dec-17 13:11 34.100382 -117.227287 202 1158ft 0kts
24-Dec-17 13:12 34.100382 -117.227287 202 1158ft 0kts
24-Dec-17 13:13 34.100382 -117.227287 202 1158ft 0kts
24-Dec-17 13:14 34.100382 -117.227287 202 1158ft 0kts
24-Dec-17 13:15 34.100382 -117.227287 202 1158ft 0kts
24-Dec-17 13:16 34.100382 -117.227287 202 1158ft 0kts
24-Dec-17 13:17 34.100382 -117.227287 202 1158ft 0kts
24-Dec-17 13:24 34.102166 -117.224730 94 1158ft 0kts
24-Dec-17 13:25 34.102166 -117.224730 94 1158ft 0kts
24-Dec-17 13:26 34.102166 -117.224730 94 1158ft 0kts
24-Dec-17 13:27 34.102166 -117.224730 94 1158ft 0kts
24-Dec-17 13:28 34.100715 -117.226016 254 1158ft 15kts
24-Dec-17 13:29 34.100294 -117.227374 208 1158ft 0kts
24-Dec-17 13:30 34.100294 -117.227374 208 1158ft 0kts
24-Dec-17 13:31 34.100294 -117.227374 208 1158ft 0kts
24-Dec-17 13:32 34.100294 -117.227374 208 1158ft 0kts
24-Dec-17 13:33 34.100294 -117.227374 208 1158ft 0kts
24-Dec-17 13:34 34.100294 -117.227374 208 1158ft 0kts
24-Dec-17 13:35 34.100294 -117.227374 208 1158ft 0kts
24-Dec-17 13:36 34.100294 -117.227374 208 1158ft 0kts
24-Dec-17 13:37 34.100294 -117.227374 208 1158ft 0kts
24-Dec-17 13:38 34.100294 -117.227374 208 1158ft 0kts
24-Dec-17 13:39 34.099475 -117.227241 194 1158ft 9kts
24-Dec-17 13:40 34.097963 -117.232071 249 1158ft 19kts
24-Dec-17 13:41 34.095998 -117.238723 250 1158ft 21kts
24-Dec-17 13:42 34.093954 -117.245654 251 1158ft 22kts
24-Dec-17 13:43 34.091620 -117.250790 160 1158ft 6kts
24-Dec-17 13:44 34.091584 -117.250774 160 1158ft 0kts
24-Dec-17 13:45 34.091584 -117.250774 160 1158ft 0kts
24-Dec-17 13:46 34.091582 -117.250773 160 1158ft 0kts
24-Dec-17 13:47 34.091481 -117.250701 147 1158ft 5kts
24-Dec-17 13:48 34.091975 -117.246128 70 1158ft 78kts
24-Dec-17 13:49 34.099915 -117.212118 83 2070ft 112kts
24-Dec-17 13:50 34.089071 -117.182777 186 3094ft 121kts
24-Dec-17 13:51 34.062213 -117.206754 217 3932ft 126kts
24-Dec-17 13:52 34.032832 -117.232174 213 4378ft 148kts
24-Dec-17 13:53 34.001670 -117.264781 247 4571ft 162kts
24-Dec-17 13:54 33.978197 -117.312756 238 4569ft 169kts
24-Dec-17 13:55 33.952664 -117.359951 238 4567ft 168kts
24-Dec-17 13:56 33.927049 -117.407147 238 4571ft 167kts
24-Dec-17 13:57 33.904160 -117.449280 239 4579ft 167kts
24-Dec-17 13:58 33.878753 -117.496042 239 4500ft 169kts
24-Dec-17 13:59 33.856028 -117.537807 239 4501ft 167kts
24-Dec-17 14:00 33.830634 -117.584464 239 4503ft 166kts
24-Dec-17 14:01 33.807105 -117.627649 239 4504ft 164kts
24-Dec-17 14:02 33.783294 -117.671291 238 4495ft 144kts
24-Dec-17 14:03 33.762642 -117.709113 238 4498ft 130kts
24-Dec-17 14:04 33.774937 -117.731598 33 4477ft 134kts
24-Dec-17 14:05 33.800677 -117.718713 302 4543ft 118kts
24-Dec-17 14:06 33.810326 -117.751434 207 4452ft 117kts
24-Dec-17 14:07 33.782907 -117.730499 138 4506ft 124kts
24-Dec-17 14:08 33.760060 -117.699384 112 4568ft 126kts
24-Dec-17 14:09 33.776203 -117.679961 303 4347ft 117kts
24-Dec-17 14:10 33.788216 -117.714515 281 3709ft 110kts
24-Dec-17 14:11 33.780638 -117.749109 243 2531ft 110kts
24-Dec-17 14:12 33.765990 -117.780676 225 1334ft 109kts
24-Dec-17 14:13 33.745326 -117.804962 226 979ft 101kts
24-Dec-17 14:14 33.724150 -117.826815 222 1113ft 100kts
24-Dec-17 14:15 33.706097 -117.850279 219 889ft 88kts
24-Dec-17 14:16 33.684756 -117.863242 208 109ft 85kts
24-Dec-17 14:17 33.676042 -117.869833 301 57ft 0kts
24-Dec-17 14:18 33.676104 -117.870089 222 57ft 6kts
24-Dec-17 14:19 33.675388 -117.871745 247 57ft 4kts
24-Dec-17 14:20 33.675317 -117.871837 212 57ft 0kts
24-Dec-17 14:21 33.675317 -117.871837 212 57ft 0kts
24-Dec-17 14:22 33.675317 -117.871837 212 57ft 0kts
24-Dec-17 14:23 33.675317 -117.871837 212 57ft 0kts

Navigation Log

Ident Type
Flight plan parsing failed, navigation log unavailable